Mackinac Island Lilac Festival 10K

back to results

Jun. 7, 2008

Mackinac Island Lilac Festival 10K
Mackinac Island,MI
Provided by Gault Race Mgt.


******************* MALE OVERALL WINNER ***************************
Place Oal Name Town Ag Time Pace
===== === ====================== ================= == ======= =====
1 1 Robert Young Wayland 22 34:28 5:33
******************* FEMALE OVERALL WINNER ***************************
Place Oal Name Town Ag Time Pace
===== === ====================== ================= == ======= =====
1 28 Elizabeth Ringer Kent City 19 42:45 6:53

******************** MALE MASTERS WINNER *******************************
Place Oal Name Town Ag Time Pace
===== === ====================== ================= == ======= =====
1 2 Daniel Dixon Jackson 44 34:42 5:36

******************** FEMALE MASTERS WINNER *******************************
Place Oal Name Town Ag Time Pace
===== === ====================== ================= == ======= =====
1 35 Brenda Guitard Blind River 41 43:32 7:01

MALE AGE GROUP: 1 - 14
Place Oal Name Town Ag Time Pace
===== === ====================== ================= == ======= =====
1 50 Benjamin Haner Mindemoya 9 45:27 7:19
2 312 Tanner Simmons Yale 14 1:10:43 11:24
3 365 Tristen Gregory Levering 12 1:25:32 13:47

FEMALE AGE GROUP: 1 - 14
Place Oal Name Town Ag Time Pace
===== === ====================== ================= == ======= =====
1 49 Sadie Ringer Kent City 14 45:24 7:19
2 163 Elizabeth Lenning Schoolcraft 14 55:55 9:00
3 333 Alexandra Lacross Traverse City 10 1:14:29 12:00
4 334 Jennifer Lacross Traverse City 8 1:14:55 12:04

MALE AGE GROUP: 15 - 16
Place Oal Name Town Ag Time Pace
===== === ====================== ================= == ======= =====
1 7 Jeremy Egas Wolverine 15 37:52 6:06
2 8 Lain Veihl Onaway 16 37:54 6:07
3 15 Noah Haverdink Hudsonville 15 39:50 6:25
4 21 Jason Farrar Ithaca 15 41:59 6:46
5 29 Brian Johnson Saline 16 42:49 6:54
6 34 Eric Farrar Ithaca 15 43:17 6:59
7 59 Eli Gooding Petoskey 15 46:57 7:34
8 179 William Gates Elmira 15 57:10 9:13

FEMALE AGE GROUP: 15 - 16
Place Oal Name Town Ag Time Pace
===== === ====================== ================= == ======= =====
1 63 Kate Wiseman Nashville 15 47:29 7:39
2 132 Madeline Keisler Fort Wayne 15 53:38 8:38
3 135 Taylor Roberts Elmira 15 53:59 8:42
4 227 Jill Krueger Huntington 15 1:00:58 9:49
5 257 Emily Holmes Menominee 15 1:03:34 10:14
6 262 Victoria Freeman Naperville 15 1:04:31 10:24
7 280 Rhianna Uskiewicz Alpena 16 1:05:35 10:34

MALE AGE GROUP: 17 - 19
Place Oal Name Town Ag Time Pace
===== === ====================== ================= == ======= =====
1 3 Brockton Feltman Alma 17 35:00 5:38
2 10 Kevin Darrow Mackinaw City 17 38:16 6:10
3 13 Luke Operhall Wolverine 17 39:10 6:19
4 17 Mitchell Farrar Ithaca 19 40:04 6:27
5 32 Matthew Smith Saline 17 43:00 6:56
6 37 Glen Lalone Mancelona 18 43:56 7:05
7 61 Brent Desarmo Cheboygan 19 47:27 7:39

FEMALE AGE GROUP: 17 - 19
Place Oal Name Town Ag Time Pace
===== === ====================== ================= == ======= =====
1 173 Stevie Gould Saint Ignace 19 56:45 9:09
2 258 Abby Haverdink Hudsonville 17 1:03:34 10:14
3 338 Laura Bappert Okemos 19 1:15:34 12:10

MALE AGE GROUP: 20 - 24
Place Oal Name Town Ag Time Pace
===== === ====================== ================= == ======= =====
1 4 Joshua Risner Pittsford 21 37:22 6:01
2 18 Ryan Stephens Saline 23 40:19 6:30
3 25 James Hensley Fowlerville 24 42:34 6:52
4 30 Daniel Dewey Bloomfield 23 42:54 6:55
5 53 Ryan Blower Swartz Creek 20 46:00 7:25
6 54 Jeff Jakaitis Sault Ste. Marie 24 46:06 7:26
7 57 Brenton Place Clarkston 23 46:40 7:31
8 101 Joseph Powell Saginaw 23 50:35 8:09
9 123 Peter Bobee Canton 23 53:11 8:34
10 147 Lee Fowler Vassar 24 55:20 8:55
11 296 Daniel Barnadyn Boyne Falls 23 1:07:35 10:53
12 303 Anthony Rollins Grand Rapids 24 1:08:39 11:03

FEMALE AGE GROUP: 20 - 24
Place Oal Name Town Ag Time Pace
===== === ====================== ================= == ======= =====
1 65 Kate Kuebler East Lansing 21 47:32 7:40
2 82 Sarah Brettrager Ypsilanti 21 48:48 7:52
3 87 Laura Smith Milwaukee 23 49:14 7:56
4 104 Kasia Mazur Keego Harbor 22 51:25 8:17
5 127 Emily Glynn White Lake 21 53:16 8:35
6 138 Amber Beard Goodrich 20 54:13 8:44
7 140 Danette Disbow Gaines 21 54:20 8:45
8 146 Alisa Fowler Vassar 22 55:20 8:55
9 165 Jennifer Place Clarkston 23 56:09 9:03
10 172 Corissa Geer Michigan 20 56:42 9:08
11 174 Hannah Jacobs Mackinac Island 21 56:46 9:09
12 181 Leslie Woods Midland 20 57:31 9:16
13 201 Kelly Schrauben Portland 24 59:03 9:31
14 208 Sarah Rousseau Traverse City 23 59:34 9:36
15 246 Sarah Melling East Lansing 24 1:02:21 10:03
16 251 Jillian Kallenbach East Lansing 22 1:02:59 10:09
17 293 Heasther Hames Metamora 21 1:07:21 10:51
18 314 Courtney Defauw West Bloomfield 23 1:11:22 11:30
19 321 Marisa Solano-Sanchez Woodhaven 23 1:11:58 11:36
20 360 Elisabeth Tyzo West Bloomfield 23 1:23:56 13:31

MALE AGE GROUP: 25 - 29
Place Oal Name Town Ag Time Pace
===== === ====================== ================= == ======= =====
1 20 Matthew Bolinger Wolverine 29 40:49 6:35
2 44 Danial Sullivan Dearborn 25 45:02 7:15
3 62 Sergio Medina Saginaw 26 47:28 7:39
4 74 Doug Davis Boulder 26 48:16 7:47
5 75 Christian Lemus Buckley 25 48:28 7:49
6 83 Robert Eckoff Dearborn 29 48:53 7:53
7 108 Douglas Reaves Holt 27 51:48 8:21
8 110 Bill Schuurmans Traverse City 29 51:57 8:22
9 115 Christopher Francis Saint Clair Shore 29 52:28 8:27
10 117 Matthew Leskey Petoskey 28 52:36 8:28
11 126 Sean Concienne White Lake 29 53:16 8:35
12 133 Nicholas Hartley Chesterfield 27 53:44 8:39
13 139 Carl Petzold Flint 27 54:13 8:44
14 189 Ryan Rumberger Canton 29 57:53 9:20
15 226 Nicholas McNew Lansing 27 1:00:58 9:49
16 241 Jean Nadeau Petoskey 28 1:01:40 9:56
17 272 Andrew Coon Troy 27 1:05:17 10:31
18 330 Stephen Martin East Lansing 26 1:13:46 11:53
19 357 Alan Van Washenova Walled Lake 28 1:22:21 13:16

FEMALE AGE GROUP: 25 - 29
Place Oal Name Town Ag Time Pace
===== === ====================== ================= == ======= =====
1 45 Jennifer Field Sault Ste Marie 25 45:09 7:17
2 86 Sarah Madej Astoria 26 49:04 7:54
3 93 Leah Roche Casnovia 26 49:48 8:01
4 102 Grace Silva Holland 28 50:42 8:10
5 134 Brandi Kraus Temperance 28 53:45 8:40
6 143 Laura Baker Troy 28 55:01 8:52
7 144 Allison Crowley Ypsilanti 29 55:05 8:52
8 155 Linda Coleman Leslie 28 55:35 8:57
9 160 Heather Hanson Ann Arbor 25 55:51 9:00
10 182 Karen Black Redford 27 57:31 9:16
11 186 Danielle Guerin Plymouth 25 57:50 9:19
12 222 Crista Reaves Holt 26 1:00:50 9:48
13 237 Christi Bassos Chicago 25 1:01:31 9:55
14 248 Kellie Denton Tustin 25 1:02:26 10:04
15 259 Kristen Nester Dexter 28 1:03:53 10:17
16 295 Jessica Barnadyn Boyne Falls 26 1:07:35 10:53
17 298 Amber Hartley Chesterfield 28 1:07:52 10:56
18 301 Lesley Sobeck Rogers City 25 1:08:37 11:03
19 313 Melissa Eckoff Dearborn 28 1:11:05 11:27
20 319 Lisa Weisenberger Allen Park 25 1:11:56 11:35
21 322 Laura Moore Cass City 29 1:12:21 11:39
22 326 Michelle Huyck New Hudson 25 1:13:00 11:46
23 337 Jennie Jandron Williamston 29 1:15:30 12:10
24 339 Jessica Cunningham Canton 25 1:15:38 12:11
25 341 Rachel Schlabach Covington 25 1:16:24 12:18
26 343 Kelli Keith Battle Creek 25 1:18:53 12:42
27 346 Brenda Bierenga Royal Oak 26 1:19:18 12:46
28 347 Laurie Vansloten Rudyard 29 1:20:20 12:56
29 356 Kerrin Van Washenova Walled Lake 28 1:22:21 13:16
30 366 Stephanie Thompson Mount Morris 26 1:26:01 13:51
31 367 Jennifer Thompson Flint 29 1:26:01 13:51

MALE AGE GROUP: 30 - 34
Place Oal Name Town Ag Time Pace
===== === ====================== ================= == ======= =====
1 6 Nathan Mudge Sault Ste Marie 30 37:27 6:02
2 14 Lee Kanitz Hessel 34 39:11 6:19
3 22 Randy Vining Sault Ste. Marie 34 42:16 6:49
4 24 Aaron Krauss Midland 34 42:29 6:51
5 55 Michael Mancini Ypsilanti 33 46:14 7:27
6 73 Damon Whitfield Harbor Springs 32 48:13 7:46
7 88 Michael Gillespie Jackson 30 49:27 7:58
8 131 Greg Beharriell Sault Ste. Marie 31 53:38 8:38
9 177 David Deshazer Bay City 32 56:55 9:10
10 218 Doug Coon Kentwood 32 1:00:28 9:44
11 238 Justin Faber Swartz Creek 31 1:01:33 9:55
12 240 Ronald Nadeau Petoskey 31 1:01:40 9:56
13 311 Mike Mooney Appleton 32 1:10:42 11:23
14 320 Matthew Weisenberger Allen Park 30 1:11:56 11:35

FEMALE AGE GROUP: 30 - 34
Place Oal Name Town Ag Time Pace
===== === ====================== ================= == ======= =====
1 64 Jennifer Schmidt Lapeer 30 47:30 7:39
2 66 Paula Antoniou Lake Orion 34 47:34 7:40
3 84 Julie Albright Big Rapids 32 48:54 7:53
4 92 Becky Bolles Mt Pleasant 34 49:36 7:59
5 111 Jeanne Reichelderfer Grayling 34 51:59 8:23
6 125 Katie Schneider Brighton 30 53:15 8:35
7 150 Jennifer Deshazer Bay City 33 55:33 8:57
8 183 Jamie Malysh Guelph 30 57:37 9:17
9 195 Keri Withers West Branch 32 58:27 9:25
10 207 Anessa Songer Traverse City 31 59:33 9:36
11 211 Keri Coon Troy 32 59:52 9:39
12 217 Tess Miller St Johns 31 1:00:21 9:43
13 219 Elizabeth Gillespie Jackson 30 1:00:29 9:45
14 232 Becky Klinkman Cass City 31 1:01:14 9:52
15 235 Amy Talsma Hamilton 31 1:01:18 9:53
16 236 Dori Watters Detroit 32 1:01:27 9:54
17 269 Kristi Rumberger Canton 30 1:05:00 10:28
18 300 Jodie Mika Cass City 32 1:08:10 10:59
19 304 Allison Fitzgerald Saint Ignace 31 1:08:40 11:04
20 310 Julie Mooney Appleton 32 1:10:28 11:21
21 317 Renee Loehde Lake Villa 33 1:11:40 11:33
22 325 Sara Shirey Flushing 33 1:12:58 11:45
23 340 Tonya Lenkner Lansing 31 1:16:17 12:17
24 342 Danielle Griffin Stewartville 30 1:18:05 12:35
25 364 Kelly Stevens Traverse City 30 1:24:37 13:38
26 369 Ginger Fricke Charlevoix 33 1:28:50 14:18
27 374 Milissa Kenworthy Holly 32 1:33:50 15:07
28 378 Jamie Gregory Levering 32 1:42:13 16:28

MALE AGE GROUP: 35 - 39
Place Oal Name Town Ag Time Pace
===== === ====================== ================= == ======= =====
1 9 Marc Lester Middleville 37 38:12 6:09
2 19 Steve Laninga Holland 37 40:45 6:34
3 26 Bruce Ely Whitmore Lake 36 42:37 6:52
4 56 Matt Antoniou Lake Orion 35 46:24 7:29
5 119 Brad Valka Valka Royal Oak 37 52:54 8:31
6 120 Doug Powell Okemos 38 52:57 8:32
7 122 Scott Beltz South Lyon 38 53:05 8:33
8 129 Jack Bradway Sault Ste Marie 36 53:27 8:37
9 130 Daniel Scholten Zeeland 39 53:30 8:37
10 161 James Bell Mackinaw City 37 55:54 9:00
11 292 John Benedict Sterling Heights 35 1:07:18 10:50
12 302 Al Clark Detroit 39 1:08:38 11:03

FEMALE AGE GROUP: 35 - 39
Place Oal Name Town Ag Time Pace
===== === ====================== ================= == ======= =====
1 79 Stacy Haner Mindemoya 36 48:38 7:50
2 105 Paula-Jane Dopp Sault Ste. Marie 39 51:37 8:19
3 159 Jennifer Peattie Lansing 38 55:39 8:58
4 162 Carrie Schaeffer Haslett 37 55:54 9:00
5 176 Billie Alost Baton Rouge 35 56:54 9:10
6 205 Linda McGinnis Belvidere 38 59:30 9:35
7 210 Karen Kovacs Sault Ste. Marie 38 59:48 9:38
8 212 Michelle Banaszak Chesapeake Beach 38 59:57 9:39
9 213 Carmen Martin Midland 37 1:00:10 9:42
10 229 Cynthia Rivera Chicago 36 1:01:05 9:50
11 245 Andrea Ross Cass City 36 1:02:12 10:01
12 268 Angela Koppens Sault Ste. Marie 36 1:04:58 10:28
13 275 Pam Valka Royal Oak 38 1:05:24 10:32
14 279 Tammy Chaillier Escanaba 37 1:05:35 10:34
15 282 Gina Fagerman Plymouth 39 1:05:43 10:35
16 290 Kathleen McGuire Sault Ste. Marie 39 1:07:14 10:50
17 316 Tammy McFarlane Gladstone 38 1:11:37 11:32
18 318 Lisa Froning Traverse City 36 1:11:52 11:35
19 329 Urvana Morse Mackinac Island 37 1:13:39 11:52
20 344 Jodi Knieper Kirkland 39 1:19:01 12:44
21 349 Jaime Pruett Kingston 36 1:20:33 12:58

MALE AGE GROUP: 40 - 44
Place Oal Name Town Ag Time Pace
===== === ====================== ================= == ======= =====
1 12 Mike Haverdink Hudsonville 41 38:54 6:16
2 16 Tim Pearson Sault Ste. Marie 41 39:55 6:26
3 33 Greg Benjamin Harbor Springs 43 43:11 6:58
4 51 David Krueger Mackinaw City 41 45:30 7:20
5 67 Jeb Burns Okemos 43 47:49 7:42
6 70 Michael Hatchew Goodrich 43 48:08 7:45
7 77 Marty Komer Rochester Hills 41 48:33 7:49
8 154 Mark Niemiec Wixom 42 55:34 8:57
9 193 Damian Michalski Walled Lake 44 58:18 9:23
10 247 Byron Trerice Troy 44 1:02:23 10:03
11 249 John Carnes Gainesville 41 1:02:43 10:06

FEMALE AGE GROUP: 40 - 44
Place Oal Name Town Ag Time Pace
===== === ====================== ================= == ======= =====
1 36 Jill Evers-Bowers Kent City 41 43:46 7:03
2 39 Jeanne Benjamin Harbor Springs 40 44:09 7:07
3 58 Marlene O'Laney Sault Ste Marie 43 46:57 7:34
4 85 Lisa Hutton Sault Ste. Marie 44 49:00 7:54
5 106 Kathleen Moss Chesterfield Twp 43 51:40 8:20
6 113 Sandy St. Germain Sault Ste. Marie 43 52:06 8:24
7 141 Gayle Harbaugh Boyne City 43 54:38 8:48
8 142 Debbie Forshee Dexter 43 54:46 8:49
9 166 Janet Polidori Northville 44 56:09 9:03
10 168 Lynn Stanley Swartz Creek 42 56:17 9:04
11 184 Dawn Woods Midland 43 57:39 9:17
12 202 Leeann Wallenius Sault Ste. Marie 41 59:09 9:32
13 203 Danna Sanderson Sault Ste Marie 42 59:13 9:32
14 204 Marianne Rivera Chicago 40 59:17 9:33
15 206 Lori Langendorf Sault Sainte Mari 42 59:32 9:36
16 216 Jill Mahan Canton 40 1:00:17 9:43
17 234 Suzanne Scholten Zeelland 43 1:01:18 9:52
18 239 Therese McClelland Boyne City 42 1:01:40 9:56
19 242 Cheryl Kishigo-Leskey Petoskey 41 1:01:47 9:57
20 250 Katharine Julian Traverse City 40 1:02:48 10:07
21 255 Trish Roberts Elmira 43 1:03:20 10:12
22 256 Mary Lyle Lake Orion 44 1:03:22 10:13
23 266 Pamela Perez Clarkston 43 1:04:51 10:27
24 291 Barbara Osawabine M'Chigeeng 40 1:07:17 10:50
25 324 Amy Beattie Clarkston 44 1:12:27 11:40
26 327 Wendy Cright Battle Creek 42 1:13:05 11:46
27 332 Lisa Lacross Traverse City 40 1:14:27 11:59
28 355 Monique Baker Sault Ste. Marie 42 1:22:19 13:16

MALE AGE GROUP: 45 - 49
Place Oal Name Town Ag Time Pace
===== === ====================== ================= == ======= =====
1 11 Kenneth Flannery Williamsburg 48 38:43 6:14
2 27 Ben Waggoner Maumee 45 42:44 6:53
3 41 Douglas Bajor Royal Oak 48 44:14 7:08
4 42 Norbert Scharenbroch Charlevoix 48 44:24 7:09
5 47 Bill Peattie Lansing 45 45:20 7:18
6 71 Don Hatchew Gladwin 49 48:08 7:45
7 81 Steve Broda Northville 46 48:46 7:51
8 100 Eric Klose Levering 48 50:32 8:08
9 112 David St. Clair Novi 46 52:02 8:23
10 114 Gregory Albright Big Rapids 48 52:12 8:25
11 124 Lawrence Sak Lake Orion 47 53:11 8:34
12 152 Terence Alost Baton Rouge 46 55:34 8:57
13 156 Christopher Suchner White Cloud 46 55:36 8:57
14 175 Barton Gregoroff Plymouth 45 56:47 9:09
15 199 Mike Willy Hickory Corners 47 58:38 9:27
16 230 Jeffery Hungerford Sheperd 45 1:01:05 9:50
17 267 Jose Rivera Chicago 47 1:04:58 10:28
18 271 Steve Brown Jackson 49 1:05:05 10:29
19 274 David Schubert Bay City 46 1:05:21 10:32
20 276 Rick Hilliard Grand Blanc 49 1:05:26 10:32
21 323 Tom Beattie Clarkston 46 1:12:27 11:40
22 328 Geoff Brandle Midland 49 1:13:06 11:46
23 348 Sam Crawford Mt Morris 49 1:20:21 12:57

FEMALE AGE GROUP: 45 - 49
Place Oal Name Town Ag Time Pace
===== === ====================== ================= == ======= =====
1 46 Kris Clark Mackinac Island 45 45:14 7:17
2 116 Marcia St. Denis Harrison 46 52:31 8:28
3 137 Tammy Niemiec Wixom 45 54:05 8:43
4 157 Roxann Brown Jackson 48 55:37 8:58
5 169 Terri McKay Manassas Park 48 56:17 9:04
6 170 Janet Soller Auburn Hills 48 56:20 9:04
7 178 Carole Stevens Hickory Corners 49 57:07 9:12
8 180 Diane Kurant Lowell 46 57:19 9:14
9 185 Tara Gillette St Joseph 49 57:40 9:17
10 196 Yvette Michels Plymouth 46 58:33 9:26
11 215 Mary Sutton Rochester Hills 48 1:00:14 9:42
12 220 Julie Karwick Brighton 49 1:00:39 9:46
13 223 Diana Mitchell Eaton Rapids 49 1:00:51 9:48
14 228 Deanna Gaudio Sheperd 45 1:01:02 9:50
15 244 Lori Lamers Hudsonville 46 1:02:10 10:01
16 263 Jody Tobias Clarkston 49 1:04:40 10:25
17 265 Kimberly Cross Waterford 46 1:04:51 10:27
18 273 Marilyn Schubert Bay City 45 1:05:21 10:32
19 277 Kris South Harper Woods 48 1:05:30 10:33
20 278 Mary Hansen Fenton 48 1:05:34 10:34
21 289 Kayln Stokes Cheboygan 49 1:06:49 10:46
22 336 Suzanne Miller Holly 49 1:15:19 12:08
23 363 Linda Bridges Friendswood 47 1:24:35 13:37
24 371 Diane Holmes Menominee 49 1:30:16 14:32

MALE AGE GROUP: 50 - 54
Place Oal Name Town Ag Time Pace
===== === ====================== ================= == ======= =====
1 5 Donald Leck Maumee 50 37:25 6:02
2 31 Paul Harkins Maineville 53 42:57 6:55
3 43 Lorne Jarrett Sault Ste Marie 54 44:34 7:11
4 52 Daniel Orr Montrose 50 45:40 7:21
5 60 Richard Smalek Marshall 54 46:58 7:34
6 68 Daniel Schultze Boyne City 54 48:00 7:44
7 72 Richard Clark Clarkston 53 48:09 7:46
8 80 Chuck Winke Toledo 53 48:42 7:51
9 89 Roy Tuttle Essexville 54 49:29 7:58
10 97 Greg Main Mackinac Island 50 50:23 8:07
11 109 Doug Iocco Perrinton 50 51:53 8:22
12 118 Jeff Aubert Crystal Lake 52 52:41 8:29
13 121 Karl Ludolph Spring Valley 53 53:02 8:33
14 149 Russell Searight Sault Ste. Marie 52 55:22 8:55
15 153 Irv Karwick Brighton 51 55:34 8:57
16 209 Ronald Meier Mt. Pleasant 51 59:35 9:36
17 224 Jeff Rogers Midland 52 1:00:55 9:49
18 233 Kirt Gillette St Joseph 51 1:01:16 9:52

FEMALE AGE GROUP: 50 - 54
Place Oal Name Town Ag Time Pace
===== === ====================== ================= == ======= =====
1 48 Janice MacKay Sault Ste. Marie 52 45:21 7:19
2 103 Linda Aubert Crystal Lake 52 51:14 8:15
3 107 Janet Sawyer Fenton 54 51:44 8:20
4 128 Sherry Brunk Mt. Pleasant 50 53:26 8:36
5 188 Debbie Black Farmington Hills 52 57:53 9:20
6 225 Jody Harper Lansing 51 1:00:56 9:49
7 252 Marilyn Copeland Charlevoix 53 1:03:13 10:11
8 294 Colleen Hames Metamora 51 1:07:23 10:51
9 307 Kimi Hall Bay Village 54 1:09:55 11:16
10 315 Dale Decker Clarkston 53 1:11:32 11:31
11 361 Mary Stuner Vestaburg 50 1:24:10 13:33
12 362 Brenda Keith Battle Creek 53 1:24:31 13:37
13 372 Cindy Simmons Yale 51 1:32:00 14:49
14 373 Catherine Jackson Clarkston 54 1:33:02 14:59

MALE AGE GROUP: 55 - 59
Place Oal Name Town Ag Time Pace
===== === ====================== ================= == ======= =====
1 23 Tom Harbaugh Boyne City 59 42:18 6:49
2 40 John Gibson Indianapolis 55 44:11 7:07
3 90 Lester Hershberger Albion 55 49:29 7:58
4 91 Bruce Makie Traverse City 57 49:29 7:58
5 96 Michael Wimmer Macomb Township 56 50:18 8:06
6 171 Ray Montague Oregon 59 56:33 9:07
7 192 Stefan Gebric Mackinaw City 55 58:17 9:23
8 194 Darrell Mitzel Swartz Creek 55 58:24 9:24
9 261 Randy Lamers Hudsonville 55 1:04:11 10:20
10 283 Dennis Dunfield Fenton 58 1:05:46 10:36
11 286 James Harper Zeeland 59 1:06:18 10:41
12 308 John Demarsh Traverse City 56 1:10:13 11:19
13 351 Mark Larch Saint Clair 56 1:21:22 13:06
14 377 Steven Washburn Flint 59 1:41:19 16:19

FEMALE AGE GROUP: 55 - 59
Place Oal Name Town Ag Time Pace
===== === ====================== ================= == ======= =====
1 69 Linda Borck Grand Rapids 59 48:05 7:45
2 187 Diana Tuttle Essexville 57 57:50 9:19
3 231 Carla Lauer Spring Valley 56 1:01:13 9:52
4 243 Eileen Martini Presque Isle 58 1:01:57 9:59
5 281 Cindy Sack Grawn 59 1:05:41 10:35
6 309 Sandy Demarsh Traverse City 56 1:10:13 11:19
7 354 Linda Hanson Gaithersburg 56 1:21:48 13:10
8 358 Sherry Davidson Harrisville 55 1:23:48 13:30
9 375 Terry Peabody Fenton 59 1:34:42 15:15

MALE AGE GROUP: 60 - 64
Place Oal Name Town Ag Time Pace
===== === ====================== ================= == ======= =====
1 98 Rick Burdick Greendale 63 50:25 8:07
2 99 Chris Mile Ann Arbor 64 50:27 8:08
3 148 John Van Volkinburg Ann Arbor 61 55:21 8:55
4 151 Alvin Helms Greenville, Michi 62 55:33 8:57
5 158 Roger Nelson Dansville 60 55:37 8:58
6 167 Rory Bolger Detroit 60 56:16 9:04
7 191 John Johnson Indian River 63 58:00 9:21
8 197 Wildcat North Cheboygan 63 58:34 9:26
9 198 Jeri Stiles Fenton 62 58:36 9:26
10 305 Bruce Miller Grand Ledge 61 1:09:37 11:13

FEMALE AGE GROUP: 60 - 64
Place Oal Name Town Ag Time Pace
===== === ====================== ================= == ======= =====
1 284 Holly Harper Zeeland 60 1:05:48 10:36
2 287 Dorothy Johnson Indian River 63 1:06:41 10:44
3 345 Lee Husemann Flint 62 1:19:01 12:44
4 352 Mary Phillips Clarkston 60 1:21:22 13:06
5 353 Lavaun Reyner-Tumminel Lansing 63 1:21:36 13:08
6 359 Linda Blumer Harrisville 61 1:23:49 13:30
7 368 Louise Thompson Charlevoix 64 1:28:30 14:15

MALE AGE GROUP: 65 - 69
Place Oal Name Town Ag Time Pace
===== === ====================== ================= == ======= =====
1 253 Doug Elser Ann Arbor 66 1:03:13 10:11
2 285 Walter Topp Traverse City 66 1:05:57 10:37
3 331 Jeffrey Laufer Ann Arbor 65 1:14:22 11:59

FEMALE AGE GROUP: 65 - 69
Place Oal Name Town Ag Time Pace
===== === ====================== ================= == ======= =====

MALE AGE GROUP: 70 - 74
Place Oal Name Town Ag Time Pace
===== === ====================== ================= == ======= =====
1 136 Paul Shepard Eastport 70 54:01 8:42
2 164 Jim Elzinga Conway 72 55:56 9:01
3 190 John Steinberger Redford 70 57:54 9:20
4 270 Jerry Valka St Clair Shores 70 1:05:01 10:28

FEMALE AGE GROUP: 70 - 74
Place Oal Name Town Ag Time Pace
===== === ====================== ================= == ======= =====
1 350 Joyce Nelson MacKinaw City 72 1:21:19 13:06
2 370 Pat Van Volkinburg Ann Arbor 70 1:29:14 14:22

MALE AGE GROUP: 75 - 99
Place Oal Name Town Ag Time Pace
===== === ====================== ================= == ======= =====
1 376 Edmond Devine Ann Arbor 91 1:37:27 15:42

FEMALE AGE GROUP: 75 - 99
Place Oal Name Town Ag Time Pace
===== === ====================== ================= == ======= =====
1 299 Julie Carnes Gainesville 84 1:08:03 10:58
HEAVYWEIGHT 185-199 POUNDS
Place Oal Name Town Time Pace
===== === ====================== ================= == ======= =====
1 38 Steve Kelty Suttons Bay 44 40:18 6:30
2 95 Brian Klym Traverse City 38 48:13 7:46
3 76 Andrew Wilkinson Lake Orion 25 48:31 7:49
4 94 Marc Shepard Rochester Hills 29 49:56 8:03
5 145 Jim Moyer Gaylord 42 51:27 8:17
6 254 Andy Ash Martin 27 1:03:14 10:11
7 297 Terry Hager Gaylord 36 1:05:56 10:37
8 306 Benjamin Ash Kalamazoo 28 1:09:45 11:14
HEAVYWEIGHT 200-219 POUNDS
Place Oal Name Town Time Pace
===== === ====================== ================= == ======= =====
1 78 John Rice Honor 33 48:02 7:44
2 221 Dan McGregor Houghton Lake 43 57:18 9:14
3 335 Jeff Lacross Traverse City 40 1:10:49 11:24
HEAVYWEIGHT 220&over POUNDS
Place Oal Name Town Time Pace
===== === ====================== ================= == ======= =====
1 214 David Borck Grand Rapids 57 49:42 8:00
2 200 John Maurer Grand Ledge 46 53:06 8:33
3 264 Manny Schmidt Lapeer 57 53:24 8:36
4 288 Michael Uskiewicz Alpena 51 57:52 9:19
5 260 Tom Burris St Ignace 42 59:45 9:38



****************** MALE OVERALL WINNER ***************************
Place Oal Name Town Ag Time Pace
===== === ====================== ================= == ======= =====
1 1 Michael Kostrzewa Mt Pleasant 57 1:00:38 9:46
******************* FEMALE OVERALL WINNER ***************************
Place Oal Name Town Ag Time Pace
===== === ====================== ================= == ======= =====
1 5 Wanda Handlin Burton 51 1:08:56 11:06
******************* MALE MASTERS WINNER *******************************
Place Oal Name Town Ag Time Pace
===== === ====================== ================= == ======= =====
1 2 Harry Garrison Flushing 62 1:03:39 10:15
******************* FEMALE MASTERS WINNER *******************************
Place Oal Name Town Ag Time Pace
===== === ====================== ================= == ======= =====
1 8 Marlene Alexander Cheboygan 45 1:15:11 12:07
MALE AGE GROUP: 1 - 19
Place Oal Name Town Ag Time Pace
===== === ====================== ================= == ======= =====
1 124 Wesley Keisler Fort Wayne 19 2:03:06 19:49
2 131 Frank Rose Burton 18 2:16:29 21:59
3 132 Paul Washburn Flint 14 2:16:42 22:01
FEMALE AGE GROUP: 1 - 19
Place Oal Name Town Ag Time Pace
===== === ====================== ================= == ======= =====
1 82 Shea Holman Dexter 13 1:45:20 16:58
2 92 Jessica Lal Midland 17 1:48:32 17:29
MALE AGE GROUP: 20 - 29
Place Oal Name Town Ag Time Pace
===== === ====================== ================= == ======= =====
1 48 Steven Schultz Swartz Creek 27 1:34:49 15:16
2 93 Jason Stefaniak Bay City 27 1:51:09 17:54
FEMALE AGE GROUP: 20 - 29
Place Oal Name Town Ag Time Pace
===== === ====================== ================= == ======= =====
1 15 Kate Alexander Cheboygan 20 1:17:52 12:32
2 34 Allison Wiseman Nashville 21 1:28:01 14:11
3 49 Angie Schultz Swartz Creek 25 1:34:49 15:16
4 50 Renee Henning Harbor Springs 24 1:34:59 15:18
5 51 Emily Davidson Okemos 23 1:36:03 15:28
6 58 Kristi Fisher Vassar 24 1:38:09 15:48
7 59 Beverly Katt Jefferson City 29 1:38:34 15:52
8 76 Caroline Poelman Rochester 21 1:42:59 16:35
9 77 Sarah Stebbe Rochester 22 1:42:59 16:35
10 85 Shannon Polcyn Davison 24 1:46:00 17:04
11 94 Katie Stefaniak Bay City 25 1:51:09 17:54
12 98 Alicia Byberg-Landman Charlevoix 28 1:52:33 18:07
13 99 Elizabeth Mrozinski Petoskey 29 1:52:34 18:08
14 100 Sara Ward Petoskey 27 1:52:35 18:08
15 111 Erika Kepner Chicago 26 1:56:21 18:44
16 115 Melanie Lemus Buckley 25 1:57:32 18:56
MALE AGE GROUP: 30 - 34
Place Oal Name Town Ag Time Pace
===== === ====================== ================= == ======= =====
1 73 Mark Kenworthy Holly 31 1:41:42 16:23
2 108 James Haile Ypsilanti 31 1:54:06 18:22
FEMALE AGE GROUP: 30 - 34
Place Oal Name Town Ag Time Pace
===== === ====================== ================= == ======= =====
1 18 Sarah Clouser Noblesville 31 1:19:53 12:52
2 53 Jodi Doak Boyne City 32 1:37:06 15:38
3 64 Janine Benedict Sterling Heights 34 1:40:22 16:10
4 66 Mary Long Dearborn 32 1:41:25 16:20
5 67 Michelle Jarvie Negaunee 33 1:41:25 16:20
6 81 Kristy Whitfield Harbor Springs 34 1:43:38 16:41
7 88 Niki Chamberlain Cheboygan 33 1:46:28 17:09
8 110 Janice Rumph Central Lake 31 1:56:19 18:44
MALE AGE GROUP: 35 - 39
Place Oal Name Town Ag Time Pace
===== === ====================== ================= == ======= =====
1 62 Ok Doak Elmira 36 1:40:12 16:08
2 105 Kristi Porrell Williamston 36 1:53:15 18:14
FEMALE AGE GROUP: 35 - 39
Place Oal Name Town Ag Time Pace
===== === ====================== ================= == ======= =====
1 25 Mary Diddams Marquette 38 1:22:12 13:14
2 31 Mary Patay MacKinac Island 38 1:27:13 14:03
3 37 Lisa Krauss Midland 38 1:30:03 14:30
4 41 Shireen Hall St Joseph 36 1:30:50 14:38
5 43 Michelle Hager Gaylord 36 1:31:01 14:40
6 54 Juliann Trudell Mackinac Island 36 1:37:18 15:40
7 57 Carrie Fisher Vassar 38 1:38:08 15:48
8 60 Lisa Goidosik Flushing 36 1:39:00 15:57
9 80 Juliette Osterlund Harbor Springs 37 1:43:38 16:41
10 86 Lisa Hoffman Ypsilanti 37 1:46:04 17:05
11 87 Adrian Schoenherr Livonia 36 1:46:06 17:05
12 90 Selene Wadhawan Midland 35 1:48:32 17:29
13 102 Anne Wright Columbus 38 1:52:56 18:11
14 104 Jill Elenbaas Williamston 38 1:53:15 18:14
MALE AGE GROUP: 40 - 44
Place Oal Name Town Ag Time Pace
===== === ====================== ================= == ======= =====
FEMALE AGE GROUP: 40 - 44
Place Oal Name Town Ag Time Pace
===== === ====================== ================= == ======= =====
1 17 Deborah Cascianelli Sterling Heights 40 1:19:17 12:46
2 22 Shirley Reed Onarga 44 1:21:08 13:04
3 28 Denise Moyer Gaylord 42 1:25:41 13:48
4 101 Shauna Hoffman Williamston 42 1:52:55 18:11
5 103 Lisa Choate Williamston 43 1:53:02 18:12
6 120 Colleen Daniels Royal Oak 40 2:00:05 19:20
MALE AGE GROUP: 45 - 49
Place Oal Name Town Ag Time Pace
===== === ====================== ================= == ======= =====
1 119 David Ruckle Royal Oak 46 2:00:01 19:20
FEMALE AGE GROUP: 45 - 49
Place Oal Name Town Ag Time Pace
===== === ====================== ================= == ======= =====
1 10 Marcia Cupery Friesland 49 1:16:28 12:19
2 45 Nancy Torkec Fort Wayne 45 1:31:31 14:44
3 71 Cheryl Pitts Ortonville 47 1:41:35 16:22
4 79 Barb Poelman Rochester 45 1:43:16 16:38
5 84 Ann Holman Dexter 46 1:45:23 16:58
6 95 Denise Janke Orion 49 1:51:57 18:02
7 96 Debi Hazel Davison 49 1:52:12 18:04
8 109 Marti Johnson Traverse City 45 1:54:09 18:23
9 123 Debbie Keisler Fort Wayne 48 2:03:06 19:49
MALE AGE GROUP: 50 - 54
Place Oal Name Town Ag Time Pace
===== === ====================== ================= == ======= =====
1 72 Michael Pitts Ortonville 51 1:41:35 16:22
2 83 Jeffrey Holman Dexter 50 1:45:23 16:58
3 125 Chris Keisler Fort Wayne 50 2:03:08 19:50
4 134 James Churchill Cheboygan 52 2:16:46 22:01
FEMALE AGE GROUP: 50 - 54
Place Oal Name Town Ag Time Pace
===== === ====================== ================= == ======= =====
1 19 Carol Gaddy Bulverde 53 1:20:18 12:56
2 42 Susan Schwandt Fond Du Lac 50 1:30:52 14:38
3 47 Judith Marvin Swartz Creek 54 1:33:33 15:04
4 52 Glenda Maines Okemos 50 1:36:05 15:28
5 55 Gina Lago Dewitt 53 1:37:59 15:47
6 78 Karen Stebbe Rochester 50 1:43:15 16:38
7 112 Cindy Kepner Plainfield 53 1:56:22 18:44
8 133 Judith Churchill Cheboygan 53 2:16:44 22:01
9 137 Shannon Bonser Alanson 51 2:32:02 24:29
MALE AGE GROUP: 55 - 59
Place Oal Name Town Ag Time Pace
===== === ====================== ================= == ======= =====
1 3 Rick Sack Grawn 59 1:07:31 10:53
2 4 Tom Jr. Belford Grand Blanc 59 1:07:44 10:55
3 7 Thomas Tomlinson Mackinac Island 59 1:15:11 12:07
4 23 Michael Marvin Swartz Creek 58 1:21:34 13:08
5 30 Rodney Guinan Bear Lake 58 1:25:49 13:49
6 44 Max Warden Clio 59 1:31:20 14:43
7 56 James Lago Dewitt 58 1:37:59 15:47
FEMALE AGE GROUP: 55 - 59
Place Oal Name Town Ag Time Pace
===== === ====================== ================= == ======= =====
1 11 Jill Bielawski Lansing 55 1:16:36 12:20
2 12 Karen Badgerow Petoskey 55 1:16:43 12:21
3 13 Sanora Elser Ann Arbor 59 1:17:01 12:24
4 14 Ginette Stortz Sault Ste. Marie 57 1:17:21 12:27
5 20 Frances Paris Fenton 55 1:20:18 12:56
6 26 June Greenfield Markesan 58 1:24:01 13:32
7 27 Marcella Guinan Bear Lake 55 1:24:56 13:41
8 32 Judy Topoll Kalamazoo 59 1:27:30 14:05
9 36 Susan Decourval Flushing 55 1:28:07 14:12
10 89 Jan Davis Indian River 56 1:46:29 17:09
11 91 Jean Larch Saint Clair 57 1:48:32 17:29
12 113 Marylou Zupin Manistee 58 1:56:43 18:48
13 116 Debbie Schultz Swartz Creek 58 1:59:45 19:17
14 128 Rosanne Renauer Okemos 55 2:13:43 21:32
15 129 Lynn Boza Northville 57 2:13:44 21:32
MALE AGE GROUP: 60 - 64
Place Oal Name Town Ag Time Pace
===== === ====================== ================= == ======= =====
1 6 William Gardner Fentom 64 1:09:13 11:09
2 16 Eugene Zofchak Swartz Creek 61 1:18:27 12:38
3 21 Jim Paris Fenton 64 1:20:19 12:56
4 29 Terry Bigelow Merrill 63 1:25:46 13:49
5 46 Marvin Atlas Southfield 62 1:32:08 14:50
6 75 James Lenhardt Clarkston 60 1:42:06 16:27
7 97 Joseph Mancini Ypsilanti 62 1:52:14 18:04
8 106 John Cunningham Plymouth 63 1:53:50 18:20
9 114 Steve Zupin Manistee 61 1:56:50 18:49
10 117 Richard Schultz Swartz Creek 61 1:59:45 19:17
11 122 Mark Marineau Warren 63 2:00:59 19:29
FEMALE AGE GROUP: 60 - 64
Place Oal Name Town Ag Time Pace
===== === ====================== ================= == ======= =====
1 9 Wanda Merrell Flushing 63 1:15:20 12:08
2 38 Sandra Bigelow Merrill 62 1:30:08 14:31
3 39 Veda Balla Flint 62 1:30:19 14:33
4 40 Joanne Hawkins Charlevoix 60 1:30:29 14:34
5 61 Christine Vickerman Clio 60 1:39:01 15:57
6 63 Marlene Humes Bear Lake 63 1:40:12 16:08
7 70 Lynne Ransom Flushing 62 1:41:34 16:21
8 107 Sally Cunningham Plymouth 60 1:53:50 18:20
9 121 Leslie Marineau Warren 62 2:00:57 19:29
10 126 Lorinda Tait Lansing 61 2:05:19 20:11
11 127 Joanne Neil Grayling 61 2:05:19 20:11
12 130 Pamela Wistrand-Gardne Fenton 62 2:15:50 21:52
13 135 Jean Hunt Carp Lake 60 2:16:46 22:01
MALE AGE GROUP: 65 - 69
Place Oal Name Town Ag Time Pace
===== === ====================== ================= == ======= =====
1 24 Doug Fisher Flushing 65 1:21:46 13:10
2 33 David Martin Flint 69 1:27:39 14:07
3 69 Larry Stecco Flushing 66 1:41:34 16:21
4 74 James Behrndt Battle Creek 68 1:42:04 16:26
FEMALE AGE GROUP: 65 - 69
Place Oal Name Town Ag Time Pace
===== === ====================== ================= == ======= =====
1 68 Dianne Troy Lapeer 65 1:41:33 16:21
2 118 Judy Stevens Swartz Creek 65 1:59:50 19:18
MALE AGE GROUP: 70 - 74
Place Oal Name Town Ag Time Pace
===== === ====================== ================= == ======= =====
1 35 Robert Ransom Flushing 70 1:28:07 14:11
FEMALE AGE GROUP: 70 - 74
Place Oal Name Town Ag Time Pace
===== === ====================== ================= == ======= =====
1 65 Sally Swanson Walloon Lake 71 1:41:22 16:20
MALE AGE GROUP: 75 - 99
Place Oal Name Town Ag Time Pace
===== === ====================== ================= == ======= =====
1 136 Joseph Farina Rochester Hills 87 2:32:01 24:29
FEMALE AGE GROUP: 75 - 99
Place Oal Name Town Ag Time Pace
===== === ====================== ================= == ======= =====

Mackinac Island,MI
Provided by Gault Race Mgt.